Waelder, Texas
Current Conditions -  °F | °C
As of 1:55 PM on Sunday 23 Nov 2014 (Local Time) from KT20 Reporting Station
Clear Clear  
Wind Chill: 80°   Ceiling: Unl
Heat Index: 80°   Visibility: 10mi
Dew Point: 50°   Wind: 16mph
Humidity: 36%   Direction: 240°WSW
Pressure: 29.56"   Gusts: 23mph
Location:  29.7°N, 97.3°W
Report Text: KT20 231955Z AUTO 24014G20KT 10SM CLR 27/10 A2956 RMK AO2 T02660102
Loading
Personal Weather Stations






























Interactive Weather Map New forecast layout! Learn more

10-Day Weather Forecast

Advertisements
Track Severe Weather on mobile